sensor_id;sensor_type;location;lat;lon;timestamp;P1;durP1;ratioP1;P2;durP2;ratioP2
7729;SDS011;3908;52.310;7.230;2023-06-22T00:00:24;11.18;;;7.18;;
7729;SDS011;3908;52.310;7.230;2023-06-22T00:03:11;9.00;;;7.15;;
7729;SDS011;3908;52.310;7.230;2023-06-22T00:05:58;8.60;;;7.22;;
7729;SDS011;3908;52.310;7.230;2023-06-22T00:08:46;11.10;;;7.95;;
7729;SDS011;3908;52.310;7.230;2023-06-22T00:11:33;12.43;;;10.82;;
7729;SDS011;3908;52.310;7.230;2023-06-22T00:14:20;11.55;;;8.85;;
7729;SDS011;3908;52.310;7.230;2023-06-22T00:17:07;19.80;;;11.27;;
7729;SDS011;3908;52.310;7.230;2023-06-22T00:19:54;12.20;;;10.18;;
7729;SDS011;3908;52.310;7.230;2023-06-22T00:22:40;13.75;;;10.73;;
7729;SDS011;3908;52.310;7.230;2023-06-22T00:25:29;12.73;;;9.32;;
7729;SDS011;3908;52.310;7.230;2023-06-22T00:28:16;12.57;;;9.23;;
7729;SDS011;3908;52.310;7.230;2023-06-22T00:31:03;12.57;;;10.35;;
7729;SDS011;3908;52.310;7.230;2023-06-22T00:33:50;10.75;;;8.18;;
7729;SDS011;3908;52.310;7.230;2023-06-22T00:36:37;13.20;;;9.88;;
7729;SDS011;3908;52.310;7.230;2023-06-22T00:39:27;16.48;;;10.90;;
7729;SDS011;3908;52.310;7.230;2023-06-22T00:42:16;14.90;;;10.13;;
7729;SDS011;3908;52.310;7.230;2023-06-22T00:45:03;13.15;;;9.23;;
7729;SDS011;3908;52.310;7.230;2023-06-22T00:47:52;20.10;;;13.27;;
7729;SDS011;3908;52.310;7.230;2023-06-22T00:50:39;16.05;;;13.90;;
7729;SDS011;3908;52.310;7.230;2023-06-22T00:53:26;18.42;;;14.88;;
7729;SDS011;3908;52.310;7.230;2023-06-22T00:56:13;19.10;;;16.17;;
7729;SDS011;3908;52.310;7.230;2023-06-22T00:59:01;21.67;;;16.87;;
7729;SDS011;3908;52.310;7.230;2023-06-22T01:01:48;22.13;;;17.03;;
7729;SDS011;3908;52.310;7.230;2023-06-22T01:04:36;23.47;;;14.57;;
7729;SDS011;3908;52.310;7.230;2023-06-22T01:07:25;97.80;;;58.00;;
7729;SDS011;3908;52.310;7.230;2023-06-22T01:10:18;189.27;;;178.50;;
7729;SDS011;3908;52.310;7.230;2023-06-22T01:16:15;137.50;;;129.67;;
7729;SDS011;3908;52.310;7.230;2023-06-22T01:19:06;174.77;;;164.80;;
7729;SDS011;3908;52.310;7.230;2023-06-22T01:21:56;100.93;;;94.95;;
7729;SDS011;3908;52.310;7.230;2023-06-22T01:24:48;117.63;;;110.90;;
7729;SDS011;3908;52.310;7.230;2023-06-22T01:27:39;111.37;;;105.20;;
7729;SDS011;3908;52.310;7.230;2023-06-22T01:30:29;115.43;;;108.87;;
7729;SDS011;3908;52.310;7.230;2023-06-22T01:33:16;90.80;;;85.50;;
7729;SDS011;3908;52.310;7.230;2023-06-22T01:36:03;94.60;;;89.05;;
7729;SDS011;3908;52.310;7.230;2023-06-22T01:38:51;109.07;;;102.83;;
7729;SDS011;3908;52.310;7.230;2023-06-22T01:41:38;136.07;;;127.60;;
7729;SDS011;3908;52.310;7.230;2023-06-22T01:44:26;143.23;;;135.03;;
7729;SDS011;3908;52.310;7.230;2023-06-22T01:47:14;141.43;;;133.27;;
7729;SDS011;3908;52.310;7.230;2023-06-22T01:50:01;176.63;;;166.70;;
7729;SDS011;3908;52.310;7.230;2023-06-22T01:52:48;219.67;;;206.83;;
7729;SDS011;3908;52.310;7.230;2023-06-22T01:55:35;169.27;;;159.73;;
7729;SDS011;3908;52.310;7.230;2023-06-22T01:58:22;145.67;;;136.80;;
7729;SDS011;3908;52.310;7.230;2023-06-22T02:01:11;151.10;;;141.77;;
7729;SDS011;3908;52.310;7.230;2023-06-22T02:04:02;166.70;;;155.90;;
7729;SDS011;3908;52.310;7.230;2023-06-22T02:06:51;171.30;;;160.67;;
7729;SDS011;3908;52.310;7.230;2023-06-22T02:09:39;217.87;;;205.47;;
7729;SDS011;3908;52.310;7.230;2023-06-22T02:12:27;241.80;;;228.30;;
7729;SDS011;3908;52.310;7.230;2023-06-22T02:15:14;215.97;;;203.43;;
7729;SDS011;3908;52.310;7.230;2023-06-22T02:18:02;214.50;;;201.93;;
7729;SDS011;3908;52.310;7.230;2023-06-22T02:20:50;226.30;;;212.87;;
7729;SDS011;3908;52.310;7.230;2023-06-22T02:23:38;236.83;;;222.93;;
7729;SDS011;3908;52.310;7.230;2023-06-22T02:26:25;221.07;;;208.60;;
7729;SDS011;3908;52.310;7.230;2023-06-22T02:29:12;193.27;;;181.90;;
7729;SDS011;3908;52.310;7.230;2023-06-22T02:31:58;166.23;;;157.03;;
7729;SDS011;3908;52.310;7.230;2023-06-22T02:34:45;172.23;;;162.67;;
7729;SDS011;3908;52.310;7.230;2023-06-22T02:37:34;177.63;;;167.77;;
7729;SDS011;3908;52.310;7.230;2023-06-22T02:40:23;170.67;;;160.70;;
7729;SDS011;3908;52.310;7.230;2023-06-22T02:43:10;196.37;;;185.13;;
7729;SDS011;3908;52.310;7.230;2023-06-22T02:45:57;234.63;;;221.00;;
7729;SDS011;3908;52.310;7.230;2023-06-22T02:48:44;220.63;;;207.67;;
7729;SDS011;3908;52.310;7.230;2023-06-22T02:51:33;218.90;;;206.17;;
7729;SDS011;3908;52.310;7.230;2023-06-22T02:54:22;212.80;;;200.20;;
7729;SDS011;3908;52.310;7.230;2023-06-22T02:57:09;221.10;;;208.20;;
7729;SDS011;3908;52.310;7.230;2023-06-22T02:59:58;220.23;;;207.37;;
7729;SDS011;3908;52.310;7.230;2023-06-22T03:02:46;190.47;;;179.40;;
7729;SDS011;3908;52.310;7.230;2023-06-22T03:05:33;202.43;;;190.73;;
7729;SDS011;3908;52.310;7.230;2023-06-22T03:08:20;205.73;;;193.63;;
7729;SDS011;3908;52.310;7.230;2023-06-22T03:11:08;183.07;;;171.63;;
7729;SDS011;3908;52.310;7.230;2023-06-22T03:13:55;187.23;;;175.70;;
7729;SDS011;3908;52.310;7.230;2023-06-22T03:16:42;206.67;;;194.27;;
7729;SDS011;3908;52.310;7.230;2023-06-22T03:19:29;208.57;;;195.83;;
7729;SDS011;3908;52.310;7.230;2023-06-22T03:22:16;199.70;;;187.53;;
7729;SDS011;3908;52.310;7.230;2023-06-22T03:25:04;200.83;;;188.33;;
7729;SDS011;3908;52.310;7.230;2023-06-22T03:27:56;200.87;;;188.47;;
7729;SDS011;3908;52.310;7.230;2023-06-22T03:30:43;216.80;;;203.97;;
7729;SDS011;3908;52.310;7.230;2023-06-22T03:33:30;240.17;;;226.77;;
7729;SDS011;3908;52.310;7.230;2023-06-22T03:36:17;238.93;;;224.87;;
7729;SDS011;3908;52.310;7.230;2023-06-22T03:39:05;233.73;;;220.13;;
7729;SDS011;3908;52.310;7.230;2023-06-22T03:41:52;219.67;;;206.37;;
7729;SDS011;3908;52.310;7.230;2023-06-22T03:44:40;216.30;;;202.90;;
7729;SDS011;3908;52.310;7.230;2023-06-22T03:47:27;199.53;;;187.23;;
7729;SDS011;3908;52.310;7.230;2023-06-22T03:50:14;203.63;;;191.27;;
7729;SDS011;3908;52.310;7.230;2023-06-22T03:53:01;201.60;;;188.73;;
7729;SDS011;3908;52.310;7.230;2023-06-22T03:55:48;214.30;;;201.00;;
7729;SDS011;3908;52.310;7.230;2023-06-22T03:58:35;212.03;;;198.97;;
7729;SDS011;3908;52.310;7.230;2023-06-22T04:01:29;235.10;;;220.87;;
7729;SDS011;3908;52.310;7.230;2023-06-22T04:04:17;194.23;;;183.00;;
7729;SDS011;3908;52.310;7.230;2023-06-22T04:07:04;191.73;;;180.73;;
7729;SDS011;3908;52.310;7.230;2023-06-22T04:09:51;187.13;;;175.67;;
7729;SDS011;3908;52.310;7.230;2023-06-22T04:12:38;193.87;;;182.77;;
7729;SDS011;3908;52.310;7.230;2023-06-22T04:15:24;201.97;;;189.90;;
7729;SDS011;3908;52.310;7.230;2023-06-22T04:18:13;212.90;;;200.27;;
7729;SDS011;3908;52.310;7.230;2023-06-22T04:21:02;202.47;;;190.30;;
7729;SDS011;3908;52.310;7.230;2023-06-22T04:23:49;195.30;;;183.83;;
7729;SDS011;3908;52.310;7.230;2023-06-22T04:26:36;222.40;;;209.40;;
7729;SDS011;3908;52.310;7.230;2023-06-22T04:29:23;206.07;;;193.97;;
7729;SDS011;3908;52.310;7.230;2023-06-22T04:32:14;233.07;;;219.93;;
7729;SDS011;3908;52.310;7.230;2023-06-22T04:35:02;215.73;;;203.40;;
7729;SDS011;3908;52.310;7.230;2023-06-22T04:37:50;237.80;;;224.37;;
7729;SDS011;3908;52.310;7.230;2023-06-22T04:40:40;281.20;;;265.03;;
7729;SDS011;3908;52.310;7.230;2023-06-22T04:43:27;286.67;;;270.53;;
7729;SDS011;3908;52.310;7.230;2023-06-22T04:46:15;246.73;;;233.27;;
7729;SDS011;3908;52.310;7.230;2023-06-22T04:49:03;243.60;;;230.77;;
7729;SDS011;3908;52.310;7.230;2023-06-22T04:51:53;249.68;;;235.70;;
7729;SDS011;3908;52.310;7.230;2023-06-22T04:54:40;236.63;;;222.50;;
7729;SDS011;3908;52.310;7.230;2023-06-22T04:57:32;261.77;;;246.37;;
7729;SDS011;3908;52.310;7.230;2023-06-22T05:00:19;291.70;;;274.47;;
7729;SDS011;3908;52.310;7.230;2023-06-22T05:03:08;305.97;;;285.47;;
7729;SDS011;3908;52.310;7.230;2023-06-22T05:05:56;286.50;;;268.67;;
7729;SDS011;3908;52.310;7.230;2023-06-22T05:08:44;300.80;;;283.73;;
7729;SDS011;3908;52.310;7.230;2023-06-22T05:11:31;288.10;;;272.03;;
7729;SDS011;3908;52.310;7.230;2023-06-22T05:14:18;307.40;;;289.83;;
7729;SDS011;3908;52.310;7.230;2023-06-22T05:17:05;291.43;;;274.47;;
7729;SDS011;3908;52.310;7.230;2023-06-22T05:19:59;301.23;;;283.93;;
7729;SDS011;3908;52.310;7.230;2023-06-22T05:22:45;310.80;;;292.98;;
7729;SDS011;3908;52.310;7.230;2023-06-22T05:25:34;303.57;;;285.47;;
7729;SDS011;3908;52.310;7.230;2023-06-22T05:28:21;289.27;;;272.75;;
7729;SDS011;3908;52.310;7.230;2023-06-22T05:31:08;299.80;;;283.13;;
7729;SDS011;3908;52.310;7.230;2023-06-22T05:33:55;324.17;;;305.88;;
7729;SDS011;3908;52.310;7.230;2023-06-22T05:36:42;311.55;;;293.77;;
7729;SDS011;3908;52.310;7.230;2023-06-22T05:39:29;263.85;;;249.23;;
7729;SDS011;3908;52.310;7.230;2023-06-22T05:42:17;276.98;;;261.90;;
7729;SDS011;3908;52.310;7.230;2023-06-22T05:45:05;307.90;;;290.00;;
7729;SDS011;3908;52.310;7.230;2023-06-22T05:47:52;274.00;;;258.38;;
7729;SDS011;3908;52.310;7.230;2023-06-22T05:50:38;272.20;;;256.30;;
7729;SDS011;3908;52.310;7.230;2023-06-22T05:53:25;275.27;;;259.05;;
7729;SDS011;3908;52.310;7.230;2023-06-22T05:56:12;269.88;;;254.32;;
7729;SDS011;3908;52.310;7.230;2023-06-22T05:59:01;277.88;;;262.20;;
7729;SDS011;3908;52.310;7.230;2023-06-22T06:01:47;277.23;;;261.38;;
7729;SDS011;3908;52.310;7.230;2023-06-22T06:04:35;290.85;;;274.80;;
7729;SDS011;3908;52.310;7.230;2023-06-22T06:07:22;297.02;;;280.63;;
7729;SDS011;3908;52.310;7.230;2023-06-22T06:10:09;315.98;;;299.05;;
7729;SDS011;3908;52.310;7.230;2023-06-22T06:12:56;299.92;;;283.25;;
7729;SDS011;3908;52.310;7.230;2023-06-22T06:15:44;300.95;;;283.80;;
7729;SDS011;3908;52.310;7.230;2023-06-22T06:18:31;284.42;;;268.48;;
7729;SDS011;3908;52.310;7.230;2023-06-22T06:21:18;322.98;;;304.52;;
7729;SDS011;3908;52.310;7.230;2023-06-22T06:24:05;316.17;;;299.42;;
7729;SDS011;3908;52.310;7.230;2023-06-22T06:26:54;256.35;;;242.98;;
7729;SDS011;3908;52.310;7.230;2023-06-22T06:29:41;116.70;;;110.45;;
7729;SDS011;3908;52.310;7.230;2023-06-22T06:32:29;79.72;;;74.75;;
7729;SDS011;3908;52.310;7.230;2023-06-22T06:35:16;216.57;;;204.07;;
7729;SDS011;3908;52.310;7.230;2023-06-22T06:38:03;240.82;;;227.75;;
7729;SDS011;3908;52.310;7.230;2023-06-22T06:40:50;231.73;;;219.88;;
7729;SDS011;3908;52.310;7.230;2023-06-22T06:43:37;152.70;;;144.88;;
7729;SDS011;3908;52.310;7.230;2023-06-22T06:46:24;161.32;;;152.75;;
7729;SDS011;3908;52.310;7.230;2023-06-22T06:49:12;116.97;;;110.35;;
7729;SDS011;3908;52.310;7.230;2023-06-22T06:51:59;203.55;;;192.98;;
7729;SDS011;3908;52.310;7.230;2023-06-22T06:54:46;182.85;;;173.77;;
7729;SDS011;3908;52.310;7.230;2023-06-22T06:57:33;241.93;;;229.75;;
7729;SDS011;3908;52.310;7.230;2023-06-22T07:00:20;294.67;;;278.95;;
7729;SDS011;3908;52.310;7.230;2023-06-22T07:03:08;285.13;;;270.05;;
7729;SDS011;3908;52.310;7.230;2023-06-22T07:05:56;203.55;;;193.15;;
7729;SDS011;3908;52.310;7.230;2023-06-22T07:08:43;192.63;;;182.43;;
7729;SDS011;3908;52.310;7.230;2023-06-22T07:11:32;141.93;;;134.43;;
7729;SDS011;3908;52.310;7.230;2023-06-22T07:14:23;156.55;;;148.05;;
7729;SDS011;3908;52.310;7.230;2023-06-22T07:17:10;134.90;;;127.50;;
7729;SDS011;3908;52.310;7.230;2023-06-22T07:19:57;143.27;;;135.45;;
7729;SDS011;3908;52.310;7.230;2023-06-22T07:22:45;119.47;;;112.97;;
7729;SDS011;3908;52.310;7.230;2023-06-22T07:25:32;105.82;;;100.05;;
7729;SDS011;3908;52.310;7.230;2023-06-22T07:28:19;107.90;;;101.90;;
7729;SDS011;3908;52.310;7.230;2023-06-22T07:31:06;153.77;;;145.18;;
7729;SDS011;3908;52.310;7.230;2023-06-22T07:33:53;121.72;;;115.13;;
7729;SDS011;3908;52.310;7.230;2023-06-22T07:36:39;153.00;;;144.68;;
7729;SDS011;3908;52.310;7.230;2023-06-22T07:39:28;179.65;;;170.02;;
7729;SDS011;3908;52.310;7.230;2023-06-22T07:42:14;234.75;;;221.18;;
7729;SDS011;3908;52.310;7.230;2023-06-22T07:45:04;219.93;;;207.55;;
7729;SDS011;3908;52.310;7.230;2023-06-22T07:47:53;188.02;;;177.70;;
7729;SDS011;3908;52.310;7.230;2023-06-22T07:50:40;164.65;;;155.52;;
7729;SDS011;3908;52.310;7.230;2023-06-22T07:53:27;157.43;;;148.75;;
7729;SDS011;3908;52.310;7.230;2023-06-22T07:56:15;190.60;;;179.82;;
7729;SDS011;3908;52.310;7.230;2023-06-22T07:59:05;162.70;;;153.70;;
7729;SDS011;3908;52.310;7.230;2023-06-22T08:01:52;146.77;;;139.32;;
7729;SDS011;3908;52.310;7.230;2023-06-22T08:04:39;160.38;;;152.35;;
7729;SDS011;3908;52.310;7.230;2023-06-22T08:07:26;130.18;;;124.07;;
7729;SDS011;3908;52.310;7.230;2023-06-22T08:10:13;169.88;;;161.60;;
7729;SDS011;3908;52.310;7.230;2023-06-22T08:13:01;128.73;;;122.45;;
7729;SDS011;3908;52.310;7.230;2023-06-22T08:15:48;124.20;;;118.35;;
7729;SDS011;3908;52.310;7.230;2023-06-22T08:18:35;117.97;;;112.32;;
7729;SDS011;3908;52.310;7.230;2023-06-22T08:21:22;145.95;;;139.23;;
7729;SDS011;3908;52.310;7.230;2023-06-22T08:24:08;146.98;;;139.73;;
7729;SDS011;3908;52.310;7.230;2023-06-22T08:26:55;122.95;;;117.30;;
7729;SDS011;3908;52.310;7.230;2023-06-22T08:29:44;116.10;;;110.68;;
7729;SDS011;3908;52.310;7.230;2023-06-22T08:32:30;130.00;;;124.05;;
7729;SDS011;3908;52.310;7.230;2023-06-22T08:35:18;119.65;;;114.07;;
7729;SDS011;3908;52.310;7.230;2023-06-22T08:38:06;126.75;;;121.10;;
7729;SDS011;3908;52.310;7.230;2023-06-22T08:40:53;144.65;;;137.90;;
7729;SDS011;3908;52.310;7.230;2023-06-22T08:43:40;178.88;;;170.05;;
7729;SDS011;3908;52.310;7.230;2023-06-22T08:46:28;143.48;;;136.68;;
7729;SDS011;3908;52.310;7.230;2023-06-22T08:49:18;141.35;;;134.98;;
7729;SDS011;3908;52.310;7.230;2023-06-22T08:52:06;174.10;;;165.82;;
7729;SDS011;3908;52.310;7.230;2023-06-22T08:54:53;185.48;;;176.73;;
7729;SDS011;3908;52.310;7.230;2023-06-22T08:57:40;159.02;;;151.57;;
7729;SDS011;3908;52.310;7.230;2023-06-22T09:00:28;145.68;;;138.90;;
7729;SDS011;3908;52.310;7.230;2023-06-22T09:03:19;154.45;;;147.02;;
7729;SDS011;3908;52.310;7.230;2023-06-22T09:06:07;138.38;;;132.10;;
7729;SDS011;3908;52.310;7.230;2023-06-22T09:08:54;150.52;;;143.43;;
7729;SDS011;3908;52.310;7.230;2023-06-22T09:11:41;142.20;;;135.57;;
7729;SDS011;3908;52.310;7.230;2023-06-22T09:14:28;140.98;;;134.25;;
7729;SDS011;3908;52.310;7.230;2023-06-22T09:17:15;122.20;;;116.50;;
7729;SDS011;3908;52.310;7.230;2023-06-22T09:20:04;120.05;;;114.20;;
7729;SDS011;3908;52.310;7.230;2023-06-22T09:22:51;171.23;;;162.13;;
7729;SDS011;3908;52.310;7.230;2023-06-22T09:25:41;274.73;;;258.88;;
7729;SDS011;3908;52.310;7.230;2023-06-22T09:28:27;287.50;;;270.60;;
7729;SDS011;3908;52.310;7.230;2023-06-22T09:31:14;271.08;;;255.55;;
7729;SDS011;3908;52.310;7.230;2023-06-22T09:34:02;294.08;;;276.35;;
7729;SDS011;3908;52.310;7.230;2023-06-22T09:36:51;277.65;;;261.27;;
7729;SDS011;3908;52.310;7.230;2023-06-22T09:39:38;296.92;;;279.52;;
7729;SDS011;3908;52.310;7.230;2023-06-22T09:42:25;297.48;;;279.25;;
7729;SDS011;3908;52.310;7.230;2023-06-22T09:45:11;293.00;;;275.55;;
7729;SDS011;3908;52.310;7.230;2023-06-22T09:47:58;270.05;;;253.82;;
7729;SDS011;3908;52.310;7.230;2023-06-22T09:50:45;268.50;;;252.48;;
7729;SDS011;3908;52.310;7.230;2023-06-22T09:53:33;210.38;;;198.13;;
7729;SDS011;3908;52.310;7.230;2023-06-22T09:56:20;288.02;;;270.80;;
7729;SDS011;3908;52.310;7.230;2023-06-22T09:59:08;272.15;;;255.35;;
7729;SDS011;3908;52.310;7.230;2023-06-22T10:01:54;295.67;;;278.00;;
7729;SDS011;3908;52.310;7.230;2023-06-22T10:04:43;243.90;;;229.00;;
7729;SDS011;3908;52.310;7.230;2023-06-22T10:07:30;238.60;;;223.70;;
7729;SDS011;3908;52.310;7.230;2023-06-22T10:10:18;185.20;;;173.40;;
7729;SDS011;3908;52.310;7.230;2023-06-22T10:13:07;238.65;;;224.07;;
7729;SDS011;3908;52.310;7.230;2023-06-22T10:15:54;232.38;;;217.63;;
7729;SDS011;3908;52.310;7.230;2023-06-22T10:18:41;196.30;;;183.68;;
7729;SDS011;3908;52.310;7.230;2023-06-22T10:21:28;192.30;;;180.05;;
7729;SDS011;3908;52.310;7.230;2023-06-22T10:24:15;201.15;;;188.68;;
7729;SDS011;3908;52.310;7.230;2023-06-22T10:27:03;246.68;;;232.50;;
7729;SDS011;3908;52.310;7.230;2023-06-22T10:29:50;232.02;;;219.35;;
7729;SDS011;3908;52.310;7.230;2023-06-22T10:32:38;200.75;;;188.05;;
7729;SDS011;3908;52.310;7.230;2023-06-22T10:35:25;269.58;;;253.95;;
7729;SDS011;3908;52.310;7.230;2023-06-22T10:38:11;227.68;;;213.27;;
7729;SDS011;3908;52.310;7.230;2023-06-22T10:40:58;172.70;;;161.52;;
7729;SDS011;3908;52.310;7.230;2023-06-22T10:43:46;237.20;;;223.18;;
7729;SDS011;3908;52.310;7.230;2023-06-22T10:46:33;234.57;;;220.60;;
7729;SDS011;3908;52.310;7.230;2023-06-22T10:49:20;242.63;;;227.90;;
7729;SDS011;3908;52.310;7.230;2023-06-22T10:52:07;186.23;;;174.75;;
7729;SDS011;3908;52.310;7.230;2023-06-22T10:54:54;179.80;;;169.43;;
7729;SDS011;3908;52.310;7.230;2023-06-22T10:57:41;182.45;;;172.45;;
7729;SDS011;3908;52.310;7.230;2023-06-22T11:00:31;145.38;;;137.68;;
7729;SDS011;3908;52.310;7.230;2023-06-22T11:03:17;138.57;;;131.70;;
7729;SDS011;3908;52.310;7.230;2023-06-22T11:06:04;134.10;;;127.30;;
7729;SDS011;3908;52.310;7.230;2023-06-22T11:08:51;107.40;;;102.00;;
7729;SDS011;3908;52.310;7.230;2023-06-22T11:11:38;105.03;;;99.63;;
7729;SDS011;3908;52.310;7.230;2023-06-22T11:14:25;94.57;;;89.47;;
7729;SDS011;3908;52.310;7.230;2023-06-22T11:17:16;93.85;;;88.97;;
7729;SDS011;3908;52.310;7.230;2023-06-22T11:20:03;82.20;;;77.68;;
7729;SDS011;3908;52.310;7.230;2023-06-22T11:22:55;80.45;;;75.57;;
7729;SDS011;3908;52.310;7.230;2023-06-22T11:25:42;118.60;;;112.63;;
7729;SDS011;3908;52.310;7.230;2023-06-22T11:28:28;141.00;;;133.68;;
7729;SDS011;3908;52.310;7.230;2023-06-22T11:31:15;127.72;;;121.18;;
7729;SDS011;3908;52.310;7.230;2023-06-22T11:34:03;97.85;;;92.30;;
7729;SDS011;3908;52.310;7.230;2023-06-22T11:36:50;118.45;;;112.22;;
7729;SDS011;3908;52.310;7.230;2023-06-22T11:39:37;88.32;;;83.57;;
7729;SDS011;3908;52.310;7.230;2023-06-22T11:42:24;104.95;;;99.20;;
7729;SDS011;3908;52.310;7.230;2023-06-22T11:45:11;73.43;;;68.97;;
7729;SDS011;3908;52.310;7.230;2023-06-22T11:47:57;112.30;;;106.13;;
7729;SDS011;3908;52.310;7.230;2023-06-22T11:50:46;90.68;;;85.68;;
7729;SDS011;3908;52.310;7.230;2023-06-22T11:53:33;83.80;;;78.97;;
7729;SDS011;3908;52.310;7.230;2023-06-22T11:56:20;107.70;;;102.25;;
7729;SDS011;3908;52.310;7.230;2023-06-22T11:59:06;73.43;;;69.32;;
7729;SDS011;3908;52.310;7.230;2023-06-22T12:01:53;74.68;;;70.30;;
7729;SDS011;3908;52.310;7.230;2023-06-22T12:04:40;104.40;;;98.70;;
7729;SDS011;3908;52.310;7.230;2023-06-22T12:07:28;119.38;;;113.05;;
7729;SDS011;3908;52.310;7.230;2023-06-22T12:10:15;110.90;;;105.03;;
7729;SDS011;3908;52.310;7.230;2023-06-22T12:13:02;119.93;;;113.70;;
7729;SDS011;3908;52.310;7.230;2023-06-22T12:15:49;116.72;;;110.47;;
7729;SDS011;3908;52.310;7.230;2023-06-22T12:18:37;118.10;;;111.75;;
7729;SDS011;3908;52.310;7.230;2023-06-22T12:21:24;113.75;;;107.50;;
7729;SDS011;3908;52.310;7.230;2023-06-22T12:24:12;98.78;;;93.32;;
7729;SDS011;3908;52.310;7.230;2023-06-22T12:26:59;88.55;;;83.65;;
7729;SDS011;3908;52.310;7.230;2023-06-22T12:29:47;84.95;;;79.90;;
7729;SDS011;3908;52.310;7.230;2023-06-22T12:32:34;75.80;;;70.60;;
7729;SDS011;3908;52.310;7.230;2023-06-22T12:35:21;64.57;;;60.33;;
7729;SDS011;3908;52.310;7.230;2023-06-22T12:38:08;61.33;;;57.42;;
7729;SDS011;3908;52.310;7.230;2023-06-22T12:40:56;62.08;;;58.00;;
7729;SDS011;3908;52.310;7.230;2023-06-22T12:43:43;71.05;;;66.65;;
7729;SDS011;3908;52.310;7.230;2023-06-22T12:46:30;56.80;;;53.13;;
7729;SDS011;3908;52.310;7.230;2023-06-22T12:49:22;63.45;;;59.42;;
7729;SDS011;3908;52.310;7.230;2023-06-22T12:52:09;72.45;;;68.05;;
7729;SDS011;3908;52.310;7.230;2023-06-22T12:54:57;118.90;;;112.20;;
7729;SDS011;3908;52.310;7.230;2023-06-22T12:57:45;246.82;;;232.32;;
7729;SDS011;3908;52.310;7.230;2023-06-22T13:00:32;318.50;;;298.38;;
7729;SDS011;3908;52.310;7.230;2023-06-22T13:03:19;317.67;;;298.48;;
7729;SDS011;3908;52.310;7.230;2023-06-22T13:06:05;318.02;;;298.02;;
7729;SDS011;3908;52.310;7.230;2023-06-22T13:08:52;357.20;;;334.27;;
7729;SDS011;3908;52.310;7.230;2023-06-22T13:11:39;446.75;;;418.25;;
7729;SDS011;3908;52.310;7.230;2023-06-22T13:14:27;350.83;;;330.02;;
7729;SDS011;3908;52.310;7.230;2023-06-22T13:17:14;303.67;;;285.50;;
7729;SDS011;3908;52.310;7.230;2023-06-22T13:20:01;301.33;;;282.10;;
7729;SDS011;3908;52.310;7.230;2023-06-22T13:22:49;269.45;;;251.18;;
7729;SDS011;3908;52.310;7.230;2023-06-22T13:25:36;251.30;;;234.48;;
7729;SDS011;3908;52.310;7.230;2023-06-22T13:28:23;223.27;;;208.98;;
7729;SDS011;3908;52.310;7.230;2023-06-22T13:31:13;222.90;;;209.57;;
7729;SDS011;3908;52.310;7.230;2023-06-22T13:33:59;267.13;;;252.00;;
7729;SDS011;3908;52.310;7.230;2023-06-22T13:36:46;298.13;;;280.77;;
7729;SDS011;3908;52.310;7.230;2023-06-22T13:39:33;320.45;;;301.10;;
7729;SDS011;3908;52.310;7.230;2023-06-22T13:42:22;384.42;;;360.42;;
7729;SDS011;3908;52.310;7.230;2023-06-22T13:45:09;385.08;;;361.20;;
7729;SDS011;3908;52.310;7.230;2023-06-22T13:47:57;362.00;;;339.48;;
7729;SDS011;3908;52.310;7.230;2023-06-22T13:50:44;347.77;;;327.45;;
7729;SDS011;3908;52.310;7.230;2023-06-22T13:53:31;344.15;;;323.60;;
7729;SDS011;3908;52.310;7.230;2023-06-22T13:56:18;338.85;;;317.95;;
7729;SDS011;3908;52.310;7.230;2023-06-22T13:59:05;320.67;;;300.75;;
7729;SDS011;3908;52.310;7.230;2023-06-22T14:01:52;385.85;;;360.95;;
7729;SDS011;3908;52.310;7.230;2023-06-22T14:04:40;313.40;;;292.60;;
7729;SDS011;3908;52.310;7.230;2023-06-22T14:07:27;358.00;;;334.90;;
7729;SDS011;3908;52.310;7.230;2023-06-22T14:10:14;411.80;;;384.88;;
7729;SDS011;3908;52.310;7.230;2023-06-22T14:13:01;454.90;;;425.33;;
7729;SDS011;3908;52.310;7.230;2023-06-22T14:15:51;491.40;;;458.77;;
7729;SDS011;3908;52.310;7.230;2023-06-22T14:18:39;526.67;;;489.52;;
7729;SDS011;3908;52.310;7.230;2023-06-22T14:21:27;509.50;;;474.05;;
7729;SDS011;3908;52.310;7.230;2023-06-22T14:24:14;478.75;;;445.15;;
7729;SDS011;3908;52.310;7.230;2023-06-22T14:27:01;468.83;;;434.42;;
7729;SDS011;3908;52.310;7.230;2023-06-22T14:29:48;461.95;;;428.90;;
7729;SDS011;3908;52.310;7.230;2023-06-22T14:32:35;498.60;;;464.10;;
7729;SDS011;3908;52.310;7.230;2023-06-22T14:35:22;479.58;;;446.70;;
7729;SDS011;3908;52.310;7.230;2023-06-22T14:38:11;461.77;;;429.45;;
7729;SDS011;3908;52.310;7.230;2023-06-22T14:40:58;448.55;;;420.65;;
7729;SDS011;3908;52.310;7.230;2023-06-22T14:43:45;401.60;;;377.00;;
7729;SDS011;3908;52.310;7.230;2023-06-22T14:46:32;328.80;;;307.65;;
7729;SDS011;3908;52.310;7.230;2023-06-22T14:49:19;397.98;;;373.90;;
7729;SDS011;3908;52.310;7.230;2023-06-22T14:52:06;499.75;;;467.38;;
7729;SDS011;3908;52.310;7.230;2023-06-22T14:54:54;426.13;;;400.90;;
7729;SDS011;3908;52.310;7.230;2023-06-22T14:57:41;392.15;;;368.85;;
7729;SDS011;3908;52.310;7.230;2023-06-22T15:00:28;400.20;;;376.40;;
7729;SDS011;3908;52.310;7.230;2023-06-22T15:03:15;301.48;;;284.02;;
7729;SDS011;3908;52.310;7.230;2023-06-22T15:06:07;413.42;;;389.63;;
7729;SDS011;3908;52.310;7.230;2023-06-22T15:08:54;388.33;;;364.45;;
7729;SDS011;3908;52.310;7.230;2023-06-22T15:11:42;349.45;;;327.77;;
7729;SDS011;3908;52.310;7.230;2023-06-22T15:14:29;360.98;;;339.33;;
7729;SDS011;3908;52.310;7.230;2023-06-22T15:17:16;270.25;;;252.88;;
7729;SDS011;3908;52.310;7.230;2023-06-22T15:20:04;311.05;;;292.35;;
7729;SDS011;3908;52.310;7.230;2023-06-22T15:22:51;371.77;;;349.67;;
7729;SDS011;3908;52.310;7.230;2023-06-22T15:25:41;391.08;;;368.50;;
7729;SDS011;3908;52.310;7.230;2023-06-22T15:28:29;358.73;;;339.15;;
7729;SDS011;3908;52.310;7.230;2023-06-22T15:31:17;376.20;;;355.15;;
7729;SDS011;3908;52.310;7.230;2023-06-22T15:34:04;380.45;;;358.13;;
7729;SDS011;3908;52.310;7.230;2023-06-22T15:36:51;402.38;;;378.73;;
7729;SDS011;3908;52.310;7.230;2023-06-22T15:39:38;380.52;;;358.73;;
7729;SDS011;3908;52.310;7.230;2023-06-22T15:42:25;410.33;;;384.77;;
7729;SDS011;3908;52.310;7.230;2023-06-22T15:45:13;422.95;;;396.38;;
7729;SDS011;3908;52.310;7.230;2023-06-22T15:48:00;434.25;;;408.08;;
7729;SDS011;3908;52.310;7.230;2023-06-22T15:50:47;446.77;;;419.45;;
7729;SDS011;3908;52.310;7.230;2023-06-22T15:53:33;459.08;;;430.60;;
7729;SDS011;3908;52.310;7.230;2023-06-22T15:56:20;418.35;;;392.13;;
7729;SDS011;3908;52.310;7.230;2023-06-22T15:59:08;393.13;;;368.92;;
7729;SDS011;3908;52.310;7.230;2023-06-22T16:01:57;385.02;;;361.38;;
7729;SDS011;3908;52.310;7.230;2023-06-22T16:04:44;373.95;;;351.52;;
7729;SDS011;3908;52.310;7.230;2023-06-22T16:07:30;366.85;;;344.80;;
7729;SDS011;3908;52.310;7.230;2023-06-22T16:10:17;343.33;;;323.55;;
7729;SDS011;3908;52.310;7.230;2023-06-22T16:13:05;334.65;;;315.60;;
7729;SDS011;3908;52.310;7.230;2023-06-22T16:15:52;355.38;;;335.65;;
7729;SDS011;3908;52.310;7.230;2023-06-22T16:18:40;326.33;;;307.98;;
7729;SDS011;3908;52.310;7.230;2023-06-22T16:21:27;330.58;;;311.52;;
7729;SDS011;3908;52.310;7.230;2023-06-22T16:24:14;378.42;;;356.40;;
7729;SDS011;3908;52.310;7.230;2023-06-22T16:27:01;346.02;;;326.33;;